Time;durP1;ratioP1;P1;durP2;ratioP2;P2;SDS_P1;SDS_P2;PMS_P1;PMS_P2;Temp;Humidity;BMP_temperature;BMP_pressure;BME280_temperature;BME280_humidity;BME280_pressure;Samples;Min_cycle;Max_cycle;Signal;HPM_P1;HPM_P2
2020/12/27 00:00:34;;;;;;;;;;;;;;;-0.26;100.00;101242.77;1902219;75;20274;-37
2020/12/27 00:03:01;;;;;;;;;;;;;;;-0.26;100.00;101253.06;1902287;75;20120;-37
2020/12/27 00:05:29;;;;;;;;;;;;;;;-0.27;100.00;101257.75;1884955;75;20367;-37
2020/12/27 00:07:57;;;;;;;;;;;;;;;-0.26;100.00;101246.63;1867330;77;20139;-36
2020/12/27 00:10:24;;;;;;;;;;;;;;;-0.25;100.00;101244.48;1873070;75;20178;-37
2020/12/27 00:12:52;;;;;;;;;;;;;;;-0.26;100.00;101246.63;1867485;77;20384;-40
2020/12/27 00:15:20;;;;;;;;;;;;;;;-0.25;100.00;101250.52;1867414;77;20186;-37
2020/12/27 00:17:48;;;;;;;;;;;;;;;-0.22;100.00;101252.34;1867669;77;20233;-37
2020/12/27 00:20:16;;;;;;;;;;;;;;;-0.24;100.00;101247.13;1867386;77;20204;-37
2020/12/27 00:22:43;;;;;;;;;;;;;;;-0.24;100.00;101252.28;1867301;77;20165;-37
2020/12/27 00:25:11;;;;;;;;;;;;;;;-0.23;100.00;101244.14;1867231;77;20178;-37
2020/12/27 00:27:39;;;;;;;;;;;;;;;-0.22;100.00;101251.05;1867580;77;20169;-36
2020/12/27 00:30:06;;;;;;;;;;;;;;;-0.22;100.00;101250.64;1867273;77;20162;-36
2020/12/27 00:32:36;;;;;;;;;;;;;;;-0.21;100.00;101248.54;1867444;77;20146;-38
2020/12/27 00:35:04;;;;;;;;;;;;;;;-0.20;100.00;101239.11;1867248;75;20202;-37
2020/12/27 00:37:32;;;;;;;;;;;;;;;-0.20;100.00;101245.55;1868162;75;20182;-36
2020/12/27 00:40:00;;;;;;;;;;;;;;;-0.21;100.00;101239.93;1867275;77;20136;-36
2020/12/27 00:42:28;;;;;;;;;;;;;;;-0.20;100.00;101246.44;1867450;77;20132;-37
2020/12/27 00:44:57;;;;;;;;;;;;;;;-0.18;100.00;101249.92;1874107;76;20148;-36
2020/12/27 00:47:25;;;;;;;;;;;;;;;-0.16;100.00;101249.57;1867139;77;20419;-36
2020/12/27 00:49:53;;;;;;;;;;;;;;;-0.14;100.00;101242.78;1867033;77;20173;-35
2020/12/27 00:52:21;;;;;;;;;;;;;;;-0.11;100.00;101237.72;1867422;77;20162;-36
2020/12/27 00:54:49;;;;;;;;;;;;;;;-0.12;100.00;101235.08;1867369;77;20162;-37
2020/12/27 00:57:16;;;;;;;;;;;;;;;-0.10;100.00;101236.02;1867538;77;20269;-37
2020/12/27 00:59:44;;;;;;;;;;;;;;;-0.10;100.00;101244.63;1887758;75;20163;-36
2020/12/27 01:02:13;;;;;;;;;;;;;;;-0.15;100.00;101252.62;1874199;75;20388;-36
2020/12/27 01:04:49;;;;;;;;;;;;;;;-0.16;100.00;101246.99;1867560;77;20123;-36
2020/12/27 01:07:19;;;;;;;;;;;;;;;-0.16;100.00;101253.44;1866874;77;20189;-37
2020/12/27 01:09:48;;;;;;;;;;;;;;;-0.16;100.00;101256.42;1866849;77;20166;-37
2020/12/27 01:12:17;;;;;;;;;;;;;;;-0.18;100.00;101269.24;1867337;77;20503;-36
2020/12/27 01:14:46;;;;;;;;;;;;;;;-0.19;100.00;101276.91;1870163;75;20182;-37
2020/12/27 01:17:16;;;;;;;;;;;;;;;-0.19;100.00;101279.48;1866181;77;20233;-37
2020/12/27 01:19:44;;;;;;;;;;;;;;;-0.20;100.00;101279.05;1867430;77;20188;-36
2020/12/27 01:22:12;;;;;;;;;;;;;;;-0.20;100.00;101281.22;1867305;77;20142;-35
2020/12/27 01:24:58;;;;;;;;;;;;;;;-0.19;100.00;101282.06;1867296;77;20216;-36
2020/12/27 01:27:26;;;;;;;;;;;;;;;-0.20;100.00;101284.20;1867429;77;20395;-36
2020/12/27 01:29:54;;;;;;;;;;;;;;;-0.20;100.00;101276.06;1867552;77;20265;-37
2020/12/27 01:32:26;;;;;;;;;;;;;;;-0.19;100.00;101272.64;1866287;77;20226;-36
2020/12/27 01:34:55;;;;;;;;;;;;;;;-0.20;100.00;101272.20;1867515;77;20237;-36
2020/12/27 01:37:24;;;;;;;;;;;;;;;-0.21;100.00;101270.44;1867298;77;20166;-35
2020/12/27 01:39:53;;;;;;;;;;;;;;;-0.21;100.00;101273.02;1867187;77;20232;-36
2020/12/27 01:42:21;;;;;;;;;;;;;;;-0.22;100.00;101268.68;1867128;77;20142;-37
2020/12/27 01:44:49;;;;;;;;;;;;;;;-0.24;100.00;101266.45;1867436;77;20455;-37
2020/12/27 01:47:22;;;;;;;;;;;;;;;-0.26;100.00;101264.66;1862443;77;20185;-37
2020/12/27 01:49:50;;;;;;;;;;;;;;;-0.28;100.00;101275.31;1848400;77;20477;-37
2020/12/27 01:52:18;;;;;;;;;;;;;;;-0.31;100.00;101285.08;1867307;77;20190;-36
2020/12/27 01:54:58;;;;;;;;;;;;;;;-0.35;100.00;101287.09;1833342;77;20273;-37
2020/12/27 01:57:46;;;;;;;;;;;;;;;-0.41;100.00;101301.92;1867787;77;20146;-36
2020/12/27 02:00:13;;;;;;;;;;;;;;;-0.44;100.00;101301.78;1861866;77;20182;-35
2020/12/27 02:02:43;;;;;;;;;;;;;;;-0.47;100.00;101305.55;1867247;77;20166;-37
2020/12/27 02:05:13;;;;;;;;;;;;;;;-0.49;100.00;101309.76;1866975;77;20150;-36
2020/12/27 02:07:44;;;;;;;;;;;;;;;-0.52;100.00;101312.20;1832804;78;20133;-36
2020/12/27 02:10:19;;;;;;;;;;;;;;;-0.54;100.00;101318.14;1820651;78;20141;-36
2020/12/27 02:12:48;;;;;;;;;;;;;;;-0.57;100.00;101329.19;1861004;77;20178;-36
2020/12/27 02:15:18;;;;;;;;;;;;;;;-0.60;100.00;101330.78;1866172;77;20198;-37
2020/12/27 02:17:59;;;;;;;;;;;;;;;-0.61;100.00;101338.91;1798348;77;20178;-37
2020/12/27 02:20:28;;;;;;;;;;;;;;;-0.61;100.00;101339.32;1866256;77;20527;-35
2020/12/27 02:22:58;;;;;;;;;;;;;;;-0.64;100.00;101342.64;1865839;77;20142;-37
2020/12/27 02:26:59;;;;;;;;;;;;;;;-0.63;100.00;101342.23;1915566;74;20126;-36
2020/12/27 02:29:27;;;;;;;;;;;;;;;-0.69;100.00;101343.29;1879572;75;20124;-37
2020/12/27 02:31:56;;;;;;;;;;;;;;;-0.74;100.00;101340.95;1903288;75;20219;-37
2020/12/27 02:34:23;;;;;;;;;;;;;;;-0.77;100.00;101333.98;1903266;75;20222;-37
2020/12/27 02:36:51;;;;;;;;;;;;;;;-0.80;100.00;101341.59;1903265;75;20385;-37
2020/12/27 02:39:21;;;;;;;;;;;;;;;-0.85;100.00;101350.41;1902634;75;20191;-37
2020/12/27 02:41:49;;;;;;;;;;;;;;;-0.85;100.00;101358.53;1903282;75;20147;-36
2020/12/27 02:44:19;;;;;;;;;;;;;;;-0.88;100.00;101350.70;1902654;75;20144;-38
2020/12/27 02:47:03;;;;;;;;;;;;;;;-0.89;100.00;101347.66;1897899;75;20269;-37
2020/12/27 02:49:33;;;;;;;;;;;;;;;-0.93;100.00;101343.22;1888788;75;20183;-36
2020/12/27 02:52:02;;;;;;;;;;;;;;;-0.93;100.00;101347.08;1902814;75;20159;-35
2020/12/27 02:54:30;;;;;;;;;;;;;;;-0.95;100.00;101348.30;1903455;75;20226;-36
2020/12/27 02:56:58;;;;;;;;;;;;;;;-0.96;100.00;101354.25;1903231;75;20164;-37
2020/12/27 02:59:27;;;;;;;;;;;;;;;-0.97;100.00;101369.63;1903073;75;20374;-36
2020/12/27 03:01:57;;;;;;;;;;;;;;;-0.98;100.00;101365.29;1901983;75;20124;-36
2020/12/27 03:04:32;;;;;;;;;;;;;;;-0.98;100.00;101367.45;1884054;75;20262;-38
2020/12/27 03:07:02;;;;;;;;;;;;;;;-0.99;100.00;101372.56;1902446;75;20132;-38
2020/12/27 03:09:35;;;;;;;;;;;;;;;-1.00;100.00;101374.26;1899111;75;20227;-38
2020/12/27 03:12:05;;;;;;;;;;;;;;;-1.00;100.00;101381.09;1900641;75;20116;-37
2020/12/27 03:14:33;;;;;;;;;;;;;;;-1.00;100.00;101382.38;1903334;75;20496;-36
2020/12/27 03:17:19;;;;;;;;;;;;;;;-1.01;100.00;101396.95;1903078;75;20164;-37
2020/12/27 03:19:51;;;;;;;;;;;;;;;-1.02;100.00;101404.59;1901546;75;20222;-38
2020/12/27 03:22:30;;;;;;;;;;;;;;;-1.04;100.00;101393.34;1901801;75;20164;-36
2020/12/27 03:24:59;;;;;;;;;;;;;;;-1.04;100.00;101399.37;1900257;75;20132;-36
2020/12/27 03:27:28;;;;;;;;;;;;;;;-1.05;100.00;101401.91;1903247;75;20367;-36
2020/12/27 03:29:56;;;;;;;;;;;;;;;-1.04;100.00;101402.36;1903172;75;20389;-35
2020/12/27 03:32:25;;;;;;;;;;;;;;;-1.03;100.00;101410.14;1901778;75;20175;-37
2020/12/27 03:34:53;;;;;;;;;;;;;;;-1.00;100.00;101414.55;1903024;75;20179;-38
2020/12/27 03:37:20;;;;;;;;;;;;;;;-0.99;100.00;101422.75;1902529;75;20152;-37
2020/12/27 03:39:53;;;;;;;;;;;;;;;-0.98;100.00;101421.50;1891047;75;20168;-37
2020/12/27 03:42:23;;;;;;;;;;;;;;;-0.98;100.00;101422.78;1894409;75;20219;-37
2020/12/27 03:44:54;;;;;;;;;;;;;;;-0.98;100.00;101428.34;1900856;75;20152;-36
2020/12/27 03:47:30;;;;;;;;;;;;;;;-0.98;100.00;101422.78;1896778;75;20234;-36
2020/12/27 03:50:03;;;;;;;;;;;;;;;-0.97;100.00;101430.98;1899213;75;20444;-36
2020/12/27 03:52:42;;;;;;;;;;;;;;;-0.96;100.00;101429.29;1901376;75;20148;-36
2020/12/27 03:55:21;;;;;;;;;;;;;;;-0.96;100.00;101434.44;1898668;75;20132;-36
2020/12/27 03:57:51;;;;;;;;;;;;;;;-0.94;100.00;101446.97;1901685;75;20196;-36
2020/12/27 04:00:29;;;;;;;;;;;;;;;-0.93;100.00;101451.30;1858754;75;20223;-37
2020/12/27 04:02:57;;;;;;;;;;;;;;;-0.91;100.00;101447.08;1899561;75;20144;-37
2020/12/27 04:05:26;;;;;;;;;;;;;;;-0.92;100.00;101447.48;1867062;77;20166;-36
2020/12/27 04:07:54;;;;;;;;;;;;;;;-0.91;100.00;101450.94;1867254;77;20197;-36
2020/12/27 04:10:22;;;;;;;;;;;;;;;-0.94;100.00;101454.28;1867347;77;20142;-37
2020/12/27 04:12:50;;;;;;;;;;;;;;;-0.94;100.00;101450.42;1867687;77;20130;-37
2020/12/27 04:15:18;;;;;;;;;;;;;;;-0.93;100.00;101457.34;1834228;77;20284;-37
2020/12/27 04:17:48;;;;;;;;;;;;;;;-0.93;100.00;101461.60;1867270;75;20189;-36
2020/12/27 04:20:17;;;;;;;;;;;;;;;-0.93;100.00;101457.73;1867293;77;20121;-36
2020/12/27 04:22:48;;;;;;;;;;;;;;;-0.91;100.00;101468.95;1867311;77;20129;-37
2020/12/27 04:25:18;;;;;;;;;;;;;;;-0.89;100.00;101479.80;1867188;77;20394;-38
2020/12/27 04:27:46;;;;;;;;;;;;;;;-0.88;100.00;101489.69;1867464;77;20140;-36
2020/12/27 04:30:15;;;;;;;;;;;;;;;-0.87;100.00;101492.73;1867549;77;20394;-36
2020/12/27 04:32:48;;;;;;;;;;;;;;;-0.86;100.00;101494.09;1868630;76;20160;-37
2020/12/27 04:35:21;;;;;;;;;;;;;;;-0.85;100.00;101497.52;1867360;76;20125;-35
2020/12/27 04:37:51;;;;;;;;;;;;;;;-0.85;100.00;101499.69;1867427;76;20133;-37
2020/12/27 04:40:20;;;;;;;;;;;;;;;-0.85;100.00;101502.27;1867777;76;20132;-38
2020/12/27 04:42:51;;;;;;;;;;;;;;;-0.86;100.00;101497.08;1867272;77;20140;-37
2020/12/27 04:45:20;;;;;;;;;;;;;;;-0.87;100.00;101493.63;1867816;76;20433;-36
2020/12/27 04:47:58;;;;;;;;;;;;;;;-0.86;100.00;101500.94;1866249;76;20279;-36
2020/12/27 04:50:38;;;;;;;;;;;;;;;-0.87;100.00;101512.05;1757362;81;20203;-38
2020/12/27 04:53:08;;;;;;;;;;;;;;;-0.89;100.00;101508.11;1775327;78;20128;-37
2020/12/27 04:55:38;;;;;;;;;;;;;;;-0.90;100.00;101508.92;1811719;79;20411;-36
2020/12/27 04:58:22;;;;;;;;;;;;;;;-0.89;100.00;101511.09;1816171;78;20184;-37
2020/12/27 05:01:00;;;;;;;;;;;;;;;-0.92;100.00;101512.27;1814466;78;20157;-38
2020/12/27 05:03:49;;;;;;;;;;;;;;;-0.93;100.00;101519.10;1804151;79;20125;-37
2020/12/27 05:06:17;;;;;;;;;;;;;;;-0.95;100.00;101516.86;1803905;80;20172;-37
2020/12/27 05:08:46;;;;;;;;;;;;;;;-0.92;100.00;101516.13;1804065;80;20127;-36
2020/12/27 05:11:15;;;;;;;;;;;;;;;-0.92;100.00;101518.27;1819529;78;20188;-37
2020/12/27 05:13:46;;;;;;;;;;;;;;;-0.89;100.00;101533.84;1802089;78;20132;-38
2020/12/27 05:16:16;;;;;;;;;;;;;;;-0.89;100.00;101531.67;1835244;78;20172;-36
2020/12/27 05:18:44;;;;;;;;;;;;;;;-0.89;100.00;101534.25;1832337;78;20183;-37
2020/12/27 05:21:13;;;;;;;;;;;;;;;-0.89;100.00;101540.69;1777522;78;20528;-37
2020/12/27 05:23:40;;;;;;;;;;;;;;;-0.89;100.00;101548.41;1804139;78;20237;-36
2020/12/27 05:26:10;;;;;;;;;;;;;;;-0.91;100.00;101544.88;1770365;80;20186;-37
2020/12/27 05:28:43;;;;;;;;;;;;;;;-0.92;100.00;101553.00;1770969;80;20175;-38
2020/12/27 05:31:37;;;;;;;;;;;;;;;-0.93;100.00;101570.98;1819846;78;20271;-37
2020/12/27 05:34:25;;;;;;;;;;;;;;;-0.94;100.00;101579.51;1803812;80;20133;-37
2020/12/27 05:37:11;;;;;;;;;;;;;;;-0.93;100.00;101572.27;1807471;79;20140;-36
2020/12/27 05:39:57;;;;;;;;;;;;;;;-0.93;100.00;101580.88;1790147;78;20219;-37
2020/12/27 05:42:35;;;;;;;;;;;;;;;-0.94;100.00;101583.38;1806467;78;20287;-36
2020/12/27 05:45:17;;;;;;;;;;;;;;;-0.94;100.00;101588.52;1828595;77;20297;-38
2020/12/27 05:47:46;;;;;;;;;;;;;;;-0.94;100.00;101585.54;1825921;78;20275;-37
2020/12/27 05:50:17;;;;;;;;;;;;;;;-0.95;100.00;101591.49;1813131;79;20481;-37
2020/12/27 05:52:48;;;;;;;;;;;;;;;-0.94;100.00;101593.66;1826083;77;20151;-36
2020/12/27 05:55:21;;;;;;;;;;;;;;;-0.96;100.00;101606.45;1829246;77;20173;-37
2020/12/27 05:57:51;;;;;;;;;;;;;;;-0.97;100.00;101608.95;1827004;77;20439;-38
2020/12/27 06:00:22;;;;;;;;;;;;;;;-0.99;100.00;101619.20;1829373;78;20234;-38
2020/12/27 06:02:58;;;;;;;;;;;;;;;-0.99;100.00;101619.20;1825462;78;20133;-42
2020/12/27 06:05:51;;;;;;;;;;;;;;;-0.99;100.00;101620.50;1831320;77;20194;-37
2020/12/27 06:08:31;;;;;;;;;;;;;;;-0.97;100.00;101632.12;1812037;77;20226;-36
2020/12/27 06:11:08;;;;;;;;;;;;;;;-0.97;100.00;101626.97;1847259;77;20196;-37
2020/12/27 06:14:13;;;;;;;;;;;;;;;-0.97;100.00;101638.55;1822839;79;20129;-38
2020/12/27 06:17:15;;;;;;;;;;;;;;;-0.92;100.00;101640.52;1866221;75;20456;-37
2020/12/27 06:19:59;;;;;;;;;;;;;;;-0.98;100.00;101637.66;1816481;79;20177;-37
2020/12/27 06:22:30;;;;;;;;;;;;;;;-0.97;100.00;101652.30;1831848;77;20186;-38
2020/12/27 06:26:51;;;;;;;;;;;;;;;-0.91;100.00;101656.84;1913963;74;20486;-37
2020/12/27 06:29:29;;;;;;;;;;;;;;;-0.98;100.00;101658.25;1884577;75;20313;-37
2020/12/27 06:31:56;;;;;;;;;;;;;;;-0.99;100.00;101660.38;1898698;75;20120;-38
2020/12/27 06:34:27;;;;;;;;;;;;;;;-1.02;100.00;101661.92;1892413;75;20202;-38
2020/12/27 06:36:59;;;;;;;;;;;;;;;-1.05;100.00;101661.80;1844156;77;20123;-36
2020/12/27 06:39:44;;;;;;;;;;;;;;;-1.09;100.00;101665.91;1846750;77;20154;-38
2020/12/27 06:42:30;;;;;;;;;;;;;;;-1.11;100.00;101675.64;1867020;77;20166;-37
2020/12/27 06:45:04;;;;;;;;;;;;;;;-1.12;100.00;101679.94;1831378;78;20136;-40
2020/12/27 06:47:49;;;;;;;;;;;;;;;-1.13;100.00;101681.14;1803090;78;20196;-38
2020/12/27 06:50:20;;;;;;;;;;;;;;;-1.15;100.00;101691.36;1839222;77;20192;-36
2020/12/27 06:52:49;;;;;;;;;;;;;;;-1.18;100.00;101696.34;1842261;77;20178;-37
2020/12/27 06:55:33;;;;;;;;;;;;;;;-1.21;100.00;101697.50;1828195;78;20141;-37
2020/12/27 06:58:22;;;;;;;;;;;;;;;-1.22;100.00;101695.34;1833633;77;20232;-39
2020/12/27 07:01:20;;;;;;;;;;;;;;;-1.24;100.00;101693.48;1865008;77;20150;-40
2020/12/27 07:03:47;;;;;;;;;;;;;;;-1.27;100.00;101694.66;1844566;77;20402;-38
2020/12/27 07:06:25;;;;;;;;;;;;;;;-1.27;100.00;101701.08;1832715;78;20176;-40
2020/12/27 07:08:59;;;;;;;;;;;;;;;-1.27;100.00;101707.11;1832012;78;20445;-41
2020/12/27 07:11:32;;;;;;;;;;;;;;;-1.25;100.00;101711.90;1835197;77;20428;-41
2020/12/27 07:14:01;;;;;;;;;;;;;;;-1.19;100.00;101715.59;1841968;77;20162;-40
2020/12/27 07:16:42;;;;;;;;;;;;;;;-1.12;100.00;101717.65;1832315;78;20188;-40
2020/12/27 07:19:13;;;;;;;;;;;;;;;-0.98;100.00;101723.00;1833854;77;20194;-36
2020/12/27 07:21:44;;;;;;;;;;;;;;;-0.80;100.00;101716.14;1834582;77;20137;-38
2020/12/27 07:24:15;;;;;;;;;;;;;;;-0.62;100.00;101722.52;1836223;77;20218;-38
2020/12/27 07:26:44;;;;;;;;;;;;;;;-0.44;100.00;101732.34;1795047;78;20287;-40
2020/12/27 07:29:15;;;;;;;;;;;;;;;-0.27;100.00;101730.52;1813210;77;20499;-41
2020/12/27 07:31:42;;;;;;;;;;;;;;;-0.13;100.00;101726.84;1829723;77;20218;-48
2020/12/27 07:34:12;;;;;;;;;;;;;;;0.07;100.00;101732.81;1795488;78;20481;-38
2020/12/27 07:36:40;;;;;;;;;;;;;;;0.25;100.00;101738.36;1800160;78;20139;-38
2020/12/27 07:39:10;;;;;;;;;;;;;;;0.45;100.00;101740.47;1830431;77;20182;-39
2020/12/27 07:41:40;;;;;;;;;;;;;;;0.76;100.00;101748.61;1833580;77;20193;-39
2020/12/27 07:44:12;;;;;;;;;;;;;;;1.17;100.00;101757.09;1831184;77;20588;-39
2020/12/27 07:46:41;;;;;;;;;;;;;;;1.52;100.00;101762.27;1836581;77;20759;-37
2020/12/27 07:49:10;;;;;;;;;;;;;;;1.57;100.00;101760.75;1846433;77;20182;-38
2020/12/27 07:51:38;;;;;;;;;;;;;;;1.65;100.00;101761.00;1828293;77;20194;-41
2020/12/27 07:54:05;;;;;;;;;;;;;;;1.78;100.00;101762.80;1829760;77;20271;-40
2020/12/27 07:56:33;;;;;;;;;;;;;;;1.92;100.00;101760.70;1830162;77;20185;-39
2020/12/27 07:59:02;;;;;;;;;;;;;;;1.97;100.00;101764.33;1833090;77;20217;-38
2020/12/27 08:01:32;;;;;;;;;;;;;;;1.72;100.00;101770.34;1833372;77;20438;-38
2020/12/27 08:04:05;;;;;;;;;;;;;;;1.55;100.00;101777.90;1828546;78;20227;-37
2020/12/27 08:06:34;;;;;;;;;;;;;;;1.71;100.00;101783.23;1791773;79;20236;-37
2020/12/27 08:09:06;;;;;;;;;;;;;;;1.95;100.00;101777.23;1799225;78;20197;-38
2020/12/27 08:11:35;;;;;;;;;;;;;;;2.21;100.00;101778.55;1801146;78;20266;-40
2020/12/27 08:14:09;;;;;;;;;;;;;;;2.55;100.00;101769.80;1802878;78;20579;-41
2020/12/27 08:16:40;;;;;;;;;;;;;;;2.93;100.00;101774.91;1831902;77;20323;-40
2020/12/27 08:19:14;;;;;;;;;;;;;;;3.15;100.00;101773.88;1825655;77;20169;-40
2020/12/27 08:21:43;;;;;;;;;;;;;;;3.40;99.72;101775.06;1825809;77;20189;-41
2020/12/27 08:24:14;;;;;;;;;;;;;;;3.68;97.78;101779.31;1828339;77;20180;-40
2020/12/27 08:26:44;;;;;;;;;;;;;;;3.88;95.78;101780.75;1827600;77;20226;-40
2020/12/27 08:29:13;;;;;;;;;;;;;;;3.93;93.70;101783.50;1827620;77;20397;-41
2020/12/27 08:31:41;;;;;;;;;;;;;;;3.88;91.88;101786.36;1800602;78;20211;-41
2020/12/27 08:34:15;;;;;;;;;;;;;;;3.84;90.47;101789.72;1820127;78;20276;-42
2020/12/27 08:36:48;;;;;;;;;;;;;;;3.52;88.36;101783.61;1811756;78;20206;-39
2020/12/27 08:39:35;;;;;;;;;;;;;;;3.27;87.56;101783.31;1796870;78;20145;-42
2020/12/27 08:42:19;;;;;;;;;;;;;;;3.17;87.09;101785.14;1832257;77;20143;-42
2020/12/27 08:44:49;;;;;;;;;;;;;;;3.00;86.96;101788.52;1839860;77;20310;-42
2020/12/27 08:47:27;;;;;;;;;;;;;;;3.00;86.78;101789.81;1813123;78;20201;-40
2020/12/27 08:50:04;;;;;;;;;;;;;;;2.86;86.46;101786.31;1814293;78;20282;-40
2020/12/27 08:52:32;;;;;;;;;;;;;;;2.67;86.39;101794.79;1809932;78;20275;-41
2020/12/27 08:55:04;;;;;;;;;;;;;;;2.54;86.53;101786.16;1801126;77;20195;-40
2020/12/27 08:57:32;;;;;;;;;;;;;;;2.51;86.68;101780.86;1828026;77;20163;-40
2020/12/27 09:00:11;;;;;;;;;;;;;;;2.51;86.45;101788.63;1845834;77;20482;-41
2020/12/27 09:02:41;;;;;;;;;;;;;;;2.54;86.14;101793.92;1829873;77;20222;-41
2020/12/27 09:05:13;;;;;;;;;;;;;;;2.61;85.76;101792.41;1836144;77;20181;-40
2020/12/27 09:07:44;;;;;;;;;;;;;;;2.57;84.97;101789.23;1837610;77;20260;-41
2020/12/27 09:10:16;;;;;;;;;;;;;;;2.43;84.34;101794.39;1831336;77;20180;-39
2020/12/27 09:12:59;;;;;;;;;;;;;;;2.25;83.90;101797.21;1844244;77;20183;-43
2020/12/27 09:15:45;;;;;;;;;;;;;;;2.17;84.11;101790.88;1831146;77;20243;-41
2020/12/27 09:18:17;;;;;;;;;;;;;;;2.20;84.27;101797.06;1810666;78;20220;-39
2020/12/27 09:20:45;;;;;;;;;;;;;;;2.18;83.90;101797.83;1812787;78;20181;-40
2020/12/27 09:23:17;;;;;;;;;;;;;;;2.21;83.58;101799.23;1798011;78;20202;-40
2020/12/27 09:25:46;;;;;;;;;;;;;;;2.25;83.34;101798.51;1824719;77;20325;-40
2020/12/27 09:28:19;;;;;;;;;;;;;;;2.29;82.90;101812.03;1766569;78;20168;-45
2020/12/27 09:31:01;;;;;;;;;;;;;;;2.33;82.58;101810.89;1816092;78;20202;-40
2020/12/27 09:33:29;;;;;;;;;;;;;;;2.35;82.24;101817.01;1819433;78;20216;-41
2020/12/27 09:35:58;;;;;;;;;;;;;;;2.48;82.09;101818.72;1818952;78;20190;-40
2020/12/27 09:38:31;;;;;;;;;;;;;;;2.62;81.37;101814.89;1816542;78;20269;-44
2020/12/27 09:41:07;;;;;;;;;;;;;;;2.69;80.53;101820.30;1812495;78;20148;-41
2020/12/27 09:43:59;;;;;;;;;;;;;;;2.61;79.92;101826.95;1812900;78;20487;-40
2020/12/27 09:46:55;;;;;;;;;;;;;;;2.47;79.84;101823.02;1812746;78;20193;-39
2020/12/27 09:49:29;;;;;;;;;;;;;;;2.36;80.33;101820.03;1817397;78;20469;-40
2020/12/27 09:52:07;;;;;;;;;;;;;;;2.34;80.27;101828.19;1811789;78;20200;-40
2020/12/27 09:54:36;;;;;;;;;;;;;;;2.31;80.70;101829.77;1811319;78;20190;-41
2020/12/27 09:57:15;;;;;;;;;;;;;;;2.26;81.04;101827.02;1811979;78;20838;-40
2020/12/27 09:59:46;;;;;;;;;;;;;;;2.28;80.87;101833.14;1760056;78;20237;-42
2020/12/27 10:02:14;;;;;;;;;;;;;;;2.28;81.04;101835.73;1770778;78;20443;-41
2020/12/27 10:04:42;;;;;;;;;;;;;;;2.23;81.05;101835.96;1813890;78;20178;-40
2020/12/27 10:07:10;;;;;;;;;;;;;;;2.20;80.80;101837.57;1814270;78;20127;-41
2020/12/27 10:09:38;;;;;;;;;;;;;;;2.19;81.04;101827.63;1832399;77;20212;-39
2020/12/27 10:12:06;;;;;;;;;;;;;;;2.25;81.23;101837.31;1831207;77;20698;-39
2020/12/27 10:14:34;;;;;;;;;;;;;;;2.33;81.14;101833.30;1830564;77;20317;-41
2020/12/27 10:17:02;;;;;;;;;;;;;;;2.40;80.71;101832.27;1833060;77;20169;-40
2020/12/27 10:19:30;;;;;;;;;;;;;;;2.40;80.20;101823.63;1830610;77;20209;-40
2020/12/27 10:22:02;;;;;;;;;;;;;;;2.38;79.70;101823.98;1829040;77;20228;-39
2020/12/27 10:26:50;;;;;;;;;;;;;;;2.45;79.30;101824.66;1894457;74;20188;-40
2020/12/27 10:29:17;;;;;;;;;;;;;;;2.42;79.22;101828.86;1870756;75;20348;-39
2020/12/27 10:31:56;;;;;;;;;;;;;;;2.42;78.39;101827.16;1868848;75;20181;-40
2020/12/27 10:34:24;;;;;;;;;;;;;;;2.47;78.22;101831.19;1870212;75;20229;-38
2020/12/27 10:36:53;;;;;;;;;;;;;;;2.55;78.12;101835.80;1869488;75;20194;-40
2020/12/27 10:39:21;;;;;;;;;;;;;;;2.65;78.46;101839.16;1871101;75;20233;-41
2020/12/27 10:41:50;;;;;;;;;;;;;;;2.69;78.02;101831.95;1876634;75;20189;-41
2020/12/27 10:44:17;;;;;;;;;;;;;;;2.74;77.77;101839.47;1872779;75;20280;-40
2020/12/27 10:46:49;;;;;;;;;;;;;;;2.69;76.69;101837.56;1870025;75;20205;-39
2020/12/27 10:49:18;;;;;;;;;;;;;;;2.68;75.84;101839.27;1873922;75;20272;-42
2020/12/27 10:51:45;;;;;;;;;;;;;;;2.75;75.63;101832.17;1869899;75;20194;-40
2020/12/27 10:54:13;;;;;;;;;;;;;;;2.83;75.30;101833.70;1852508;75;20206;-40
2020/12/27 10:56:42;;;;;;;;;;;;;;;2.90;75.27;101838.25;1871383;75;20316;-38
2020/12/27 10:59:10;;;;;;;;;;;;;;;3.00;75.28;101839.44;1872504;75;20531;-40
2020/12/27 11:01:47;;;;;;;;;;;;;;;3.02;75.60;101837.80;1870084;75;20126;-41
2020/12/27 11:04:15;;;;;;;;;;;;;;;2.89;74.23;101841.66;1872466;75;20273;-40
2020/12/27 11:06:43;;;;;;;;;;;;;;;2.90;73.95;101839.95;1871404;75;20197;-40
2020/12/27 11:09:12;;;;;;;;;;;;;;;2.88;74.13;101842.52;1870429;75;20239;-40
2020/12/27 11:11:44;;;;;;;;;;;;;;;2.82;73.47;101834.97;1846579;75;20214;-42
2020/12/27 11:14:23;;;;;;;;;;;;;;;2.81;73.63;101834.09;1852831;75;20186;-39
2020/12/27 11:16:52;;;;;;;;;;;;;;;2.90;73.72;101833.48;1868733;75;20162;-39
2020/12/27 11:19:20;;;;;;;;;;;;;;;3.00;73.56;101842.91;1870276;75;20203;-39
2020/12/27 11:21:49;;;;;;;;;;;;;;;3.00;73.35;101847.22;1873531;75;20201;-41
2020/12/27 11:24:17;;;;;;;;;;;;;;;2.87;73.23;101842.05;1871954;75;20286;-42
2020/12/27 11:26:45;;;;;;;;;;;;;;;2.82;73.87;101836.27;1870909;75;20185;-40
2020/12/27 11:29:13;;;;;;;;;;;;;;;2.77;74.02;101847.33;1871841;75;20195;-41
2020/12/27 11:31:42;;;;;;;;;;;;;;;2.78;74.09;101850.80;1871338;75;20207;-40
2020/12/27 11:34:10;;;;;;;;;;;;;;;2.83;74.23;101850.94;1874239;75;20270;-41
2020/12/27 11:36:38;;;;;;;;;;;;;;;2.79;74.07;101857.33;1870821;75;20205;-42
2020/12/27 11:39:05;;;;;;;;;;;;;;;2.71;72.50;101866.55;1875606;75;20223;-40
2020/12/27 11:41:35;;;;;;;;;;;;;;;2.63;71.99;101861.52;1863246;75;20146;-41
2020/12/27 11:44:03;;;;;;;;;;;;;;;2.66;72.25;101869.81;1871129;75;20187;-42
2020/12/27 11:46:33;;;;;;;;;;;;;;;2.76;72.33;101875.75;1869210;75;20297;-41
2020/12/27 11:49:01;;;;;;;;;;;;;;;2.81;72.17;101878.11;1875303;75;20258;-40
2020/12/27 11:51:29;;;;;;;;;;;;;;;2.80;72.34;101881.11;1870778;75;20962;-40
2020/12/27 11:53:59;;;;;;;;;;;;;;;2.79;72.35;101880.64;1874359;75;20227;-41
2020/12/27 11:56:28;;;;;;;;;;;;;;;2.80;72.24;101882.81;1867093;75;20555;-42
2020/12/27 11:58:56;;;;;;;;;;;;;;;2.76;73.17;101884.81;1866869;75;20428;-41
2020/12/27 12:01:24;;;;;;;;;;;;;;;2.67;73.74;101893.17;1833671;77;20247;-40
2020/12/27 12:03:51;;;;;;;;;;;;;;;2.71;74.22;101885.96;1834638;77;20465;-51
2020/12/27 12:06:23;;;;;;;;;;;;;;;2.87;74.25;101886.48;1831730;77;20215;-40
2020/12/27 12:08:51;;;;;;;;;;;;;;;2.93;73.76;101895.34;1831395;77;20196;-41
2020/12/27 12:11:18;;;;;;;;;;;;;;;2.80;73.29;101894.47;1840372;77;20201;-42
2020/12/27 12:13:47;;;;;;;;;;;;;;;2.63;73.25;101910.70;1817795;77;20223;-41
2020/12/27 12:16:20;;;;;;;;;;;;;;;2.46;73.39;101901.48;1832703;77;20168;-41
2020/12/27 12:18:48;;;;;;;;;;;;;;;2.31;73.69;101899.62;1833824;77;20290;-41
2020/12/27 12:21:16;;;;;;;;;;;;;;;2.22;74.16;101901.49;1831896;77;20172;-41
2020/12/27 12:23:44;;;;;;;;;;;;;;;2.21;74.65;101899.73;1835969;77;20192;-41
2020/12/27 12:26:22;;;;;;;;;;;;;;;2.17;74.99;101896.95;1779288;79;20310;-41
2020/12/27 12:28:51;;;;;;;;;;;;;;;2.12;75.10;101901.08;1788950;78;20273;-40
2020/12/27 12:31:20;;;;;;;;;;;;;;;2.07;75.21;101903.92;1812886;78;20234;-42
2020/12/27 12:33:49;;;;;;;;;;;;;;;1.99;75.43;101910.98;1812093;78;20203;-40
2020/12/27 12:36:20;;;;;;;;;;;;;;;1.90;75.75;101907.19;1811001;78;20487;-39
2020/12/27 12:38:48;;;;;;;;;;;;;;;1.83;76.15;101911.23;1810346;78;20190;-40
2020/12/27 12:41:18;;;;;;;;;;;;;;;1.77;76.57;101904.52;1812459;78;20182;-39
2020/12/27 12:43:46;;;;;;;;;;;;;;;1.75;76.96;101911.76;1793873;78;20250;-42
2020/12/27 12:46:13;;;;;;;;;;;;;;;1.70;77.27;101913.30;1788543;78;20205;-39
2020/12/27 12:48:41;;;;;;;;;;;;;;;1.66;77.62;101917.45;1812562;78;20210;-41
2020/12/27 12:51:09;;;;;;;;;;;;;;;1.63;77.76;101918.64;1813872;78;20182;-40
2020/12/27 12:53:37;;;;;;;;;;;;;;;1.59;77.80;101927.95;1822924;78;20232;-40
2020/12/27 12:56:05;;;;;;;;;;;;;;;1.53;78.04;101920.38;1809578;78;20182;-39
2020/12/27 12:58:33;;;;;;;;;;;;;;;1.48;78.45;101924.08;1815759;78;20229;-38
2020/12/27 13:01:05;;;;;;;;;;;;;;;1.46;78.71;101923.53;1813950;78;20222;-43
2020/12/27 13:03:33;;;;;;;;;;;;;;;1.44;78.97;101934.24;1816204;78;20196;-41